Time;durP1;ratioP1;P1;durP2;ratioP2;P2;SDS_P1;SDS_P2;PMS_P1;PMS_P2;Temp;Humidity;BMP_temperature;BMP_pressure;BME280_temperature;BME280_humidity;BME280_pressure;Samples;Min_cycle;Max_cycle;Signal;HPM_P1;HPM_P2
2022/12/08 00:01:17;;;;;;;3.40;1.20;;;;;;;1.70;100.00;101229.47;5091841;28;20044;-80
2022/12/08 00:03:42;;;;;;;2.05;1.02;;;;;;;1.72;100.00;101229.41;5073590;28;20050;-77
2022/12/08 00:09:22;;;;;;;4.00;1.40;;;;;;;1.59;100.00;101216.84;5092261;28;20063;-78
2022/12/08 00:11:53;;;;;;;3.70;1.30;;;;;;;1.52;100.00;101210.19;5091775;28;20035;-80
2022/12/08 00:14:21;;;;;;;3.95;1.38;;;;;;;1.46;100.00;101204.38;5073368;28;20421;-78
2022/12/08 00:16:46;;;;;;;6.72;1.50;;;;;;;1.39;100.00;101199.41;5091596;28;20100;-78
2022/12/08 00:19:12;;;;;;;1.77;1.30;;;;;;;1.36;100.00;101201.34;5073188;28;20085;-77
2022/12/08 00:21:37;;;;;;;1.80;1.10;;;;;;;1.31;100.00;101193.66;5091891;28;20107;-78
2022/12/08 00:24:03;;;;;;;3.85;1.40;;;;;;;1.28;100.00;101196.44;5091435;28;20032;-78
2022/12/08 00:26:28;;;;;;;5.43;1.30;;;;;;;1.22;100.00;101187.09;5091514;28;20060;-78
2022/12/08 00:28:53;;;;;;;4.55;1.58;;;;;;;1.22;100.00;101179.22;5091159;28;20152;-78
2022/12/08 00:31:19;;;;;;;4.80;1.38;;;;;;;1.24;100.00;101179.16;5091415;28;20131;-77
2022/12/08 00:33:44;;;;;;;5.50;1.42;;;;;;;1.31;100.00;101172.69;5091172;28;20084;-78
2022/12/08 00:36:12;;;;;;;4.53;1.50;;;;;;;1.36;100.00;101170.72;5091599;28;20039;-77
2022/12/08 00:38:38;;;;;;;3.22;1.52;;;;;;;1.39;100.00;101164.50;5091181;28;20368;-79
2022/12/08 00:41:10;;;;;;;5.38;1.70;;;;;;;1.46;100.00;101162.41;5091286;28;20166;-77
2022/12/08 00:43:36;;;;;;;4.72;1.60;;;;;;;1.51;100.00;101163.06;5090840;28;20032;-77
2022/12/08 00:46:01;;;;;;;9.70;1.58;;;;;;;1.57;100.00;101174.09;5072964;28;20415;-79
2022/12/08 00:48:26;;;;;;;6.07;1.73;;;;;;;1.64;100.00;101177.28;5090996;28;20131;-79
2022/12/08 00:50:52;;;;;;;2.40;1.33;;;;;;;1.71;100.00;101160.31;5091281;28;20032;-77
2022/12/08 00:53:17;;;;;;;5.60;1.33;;;;;;;1.77;100.00;101174.91;5091090;28;20101;-77
2022/12/08 00:55:42;;;;;;;8.82;1.42;;;;;;;1.89;100.00;101179.56;5091124;28;20302;-77
2022/12/08 00:58:08;;;;;;;4.43;1.00;;;;;;;1.96;100.00;101179.25;5090849;28;20031;-76
2022/12/08 01:00:33;;;;;;;4.22;1.63;;;;;;;2.01;100.00;101178.09;5090565;28;20043;-76
2022/12/08 01:02:58;;;;;;;3.53;1.45;;;;;;;2.00;100.00;101171.19;5090579;28;20406;-76
2022/12/08 01:05:24;;;;;;;2.58;0.95;;;;;;;2.02;100.00;101168.47;5090956;28;20047;-76
2022/12/08 01:07:49;;;;;;;9.20;0.73;;;;;;;2.02;100.00;101150.09;5090980;28;20086;-76
2022/12/08 01:10:15;;;;;;;4.35;0.65;;;;;;;2.03;100.00;101142.16;5072149;28;20453;-77
2022/12/08 01:12:41;;;;;;;2.10;0.57;;;;;;;2.04;100.00;101130.72;5090641;28;20137;-76
2022/12/08 01:15:07;;;;;;;1.05;0.30;;;;;;;2.06;100.00;101130.63;5090118;28;20420;-76
2022/12/08 01:17:32;;;;;;;1.20;0.32;;;;;;;2.05;100.00;101129.78;5055467;28;20460;-76
2022/12/08 01:19:58;;;;;;;2.08;0.98;;;;;;;2.02;100.00;101122.06;5054816;28;20103;-77
2022/12/08 01:22:24;;;;;;;3.08;0.40;;;;;;;2.02;100.00;101116.81;5090157;28;20093;-75
2022/12/08 01:24:49;;;;;;;2.58;0.70;;;;;;;2.03;100.00;101120.28;5071484;28;20062;-78
2022/12/08 01:27:15;;;;;;;1.95;0.50;;;;;;;1.97;100.00;101120.59;5090170;28;20032;-76
2022/12/08 01:29:40;;;;;;;0.55;0.15;;;;;;;1.95;100.00;101118.06;5089973;28;20118;-75
2022/12/08 01:32:08;;;;;;;2.60;0.52;;;;;;;1.93;100.00;101126.00;5089633;28;20028;-77
2022/12/08 01:34:33;;;;;;;4.00;0.75;;;;;;;1.91;100.00;101114.75;5089828;28;20067;-77
2022/12/08 01:36:59;;;;;;;6.88;0.70;;;;;;;1.92;100.00;101119.03;5090021;28;20386;-76
2022/12/08 01:39:25;;;;;;;3.90;0.50;;;;;;;1.97;100.00;101115.34;5090074;28;20067;-75
2022/12/08 01:41:50;;;;;;;3.88;0.55;;;;;;;2.01;100.00;101127.41;5089835;28;20086;-76
2022/12/08 01:44:15;;;;;;;4.82;0.70;;;;;;;2.07;100.00;101121.84;5054864;28;20048;-77
2022/12/08 01:46:43;;;;;;;4.88;0.80;;;;;;;2.16;100.00;101121.38;5089930;28;20031;-75
2022/12/08 01:49:23;;;;;;;3.92;0.80;;;;;;;2.26;100.00;101125.22;5071019;28;20403;-77
2022/12/08 01:51:57;;;;;;;5.90;1.33;;;;;;;2.30;100.00;101120.69;5089943;28;20137;-76
2022/12/08 01:54:27;;;;;;;7.22;1.05;;;;;;;2.32;100.00;101112.72;5090455;28;20035;-76
2022/12/08 01:57:15;;;;;;;1.98;0.60;;;;;;;2.34;100.00;101105.59;5089717;28;20063;-75
2022/12/08 01:59:45;;;;;;;4.07;0.70;;;;;;;2.31;100.00;101114.47;5089540;28;20397;-76
2022/12/08 02:02:11;;;;;;;2.17;0.50;;;;;;;2.30;100.00;101110.19;5089309;28;20157;-77
2022/12/08 02:04:37;;;;;;;5.15;0.60;;;;;;;2.27;100.00;101111.19;5089338;28;20065;-76
2022/12/08 02:07:05;;;;;;;4.10;0.90;;;;;;;2.27;100.00;101118.22;5089263;28;20039;-76
2022/12/08 02:09:31;;;;;;;4.00;0.85;;;;;;;2.35;100.00;101115.19;5089900;28;20094;-78
2022/12/08 02:11:57;;;;;;;4.65;0.80;;;;;;;2.40;100.00;101116.63;5089627;28;20122;-77
2022/12/08 02:14:24;;;;;;;8.00;1.10;;;;;;;2.41;100.00;101120.97;5089460;28;20032;-77
2022/12/08 02:16:58;;;;;;;4.45;0.75;;;;;;;2.42;100.00;101117.41;5089066;28;20043;-77
2022/12/08 02:19:32;;;;;;;3.95;1.00;;;;;;;2.45;100.00;101125.13;5089018;28;20043;-77
2022/12/08 02:22:13;;;;;;;5.82;0.77;;;;;;;2.46;100.00;101132.09;5089426;28;20115;-76
2022/12/08 02:25:00;;;;;;;7.22;1.20;;;;;;;2.41;100.00;101126.22;5089570;28;20046;-77
2022/12/08 02:27:51;;;;;;;3.17;0.52;;;;;;;2.35;100.00;101102.06;5089351;28;20141;-77
2022/12/08 02:30:25;;;;;;;1.85;0.40;;;;;;;2.25;100.00;101096.44;5050520;28;20036;-76
2022/12/08 02:33:00;;;;;;;8.48;1.05;;;;;;;2.17;100.00;101094.19;5089723;28;20046;-76
2022/12/08 02:35:43;;;;;;;1.63;0.47;;;;;;;2.12;100.00;101085.72;5089401;28;20028;-77
2022/12/08 02:38:26;;;;;;;2.92;0.75;;;;;;;2.21;100.00;101073.88;5089344;28;20126;-76
2022/12/08 02:41:33;;;;;;;3.92;0.60;;;;;;;2.29;100.00;101071.72;5089362;28;20200;-76
2022/12/08 02:44:21;;;;;;;3.33;0.75;;;;;;;2.27;100.00;101090.19;5054521;28;20056;-76
2022/12/08 02:46:54;;;;;;;1.70;0.52;;;;;;;2.18;100.00;101063.53;5089201;28;20168;-75
2022/12/08 02:49:20;;;;;;;1.65;0.38;;;;;;;2.09;100.00;101049.09;5089112;28;20071;-76
2022/12/08 02:51:45;;;;;;;11.48;0.85;;;;;;;2.03;100.00;101052.91;5089739;28;20138;-77
2022/12/08 02:54:11;;;;;;;1.88;0.57;;;;;;;2.09;100.00;101070.97;5070905;28;20042;-77
2022/12/08 02:56:53;;;;;;;2.03;0.60;;;;;;;2.15;100.00;101066.31;5089277;28;20119;-78
2022/12/08 02:59:56;;;;;;;12.98;1.05;;;;;;;2.20;100.00;101067.78;5089588;28;20046;-77
2022/12/08 03:02:30;;;;;;;5.75;1.00;;;;;;;2.25;100.00;101062.28;5037131;28;20161;-77
2022/12/08 03:05:12;;;;;;;3.47;0.88;;;;;;;2.20;100.00;101057.28;5088816;28;20461;-77
2022/12/08 03:07:41;;;;;;;;;;;;;;;2.20;100.00;101064.31;5089560;28;20096;-78
2022/12/08 03:10:20;;;;;;;3.30;1.00;;;;;;;2.18;100.00;101061.78;5070600;28;19958;-77
2022/12/08 03:12:51;;;;;;;4.68;0.85;;;;;;;2.16;100.00;101047.84;5071696;28;20043;-77
2022/12/08 03:15:20;;;;;;;9.85;1.38;;;;;;;2.15;100.00;101045.31;5088664;28;20101;-75
2022/12/08 03:17:51;;;;;;;5.10;0.80;;;;;;;2.13;100.00;101047.19;5088820;28;20417;-76
2022/12/08 03:20:21;;;;;;;5.60;0.90;;;;;;;2.08;100.00;101039.53;5088828;28;20024;-75
2022/12/08 03:22:49;;;;;;;4.95;1.00;;;;;;;2.05;100.00;101032.66;5089603;28;20031;-77
2022/12/08 03:25:18;;;;;;;7.10;0.80;;;;;;;2.10;100.00;101029.81;5088880;28;20096;-76
2022/12/08 03:27:43;;;;;;;5.05;0.93;;;;;;;2.15;100.00;101033.06;5089217;28;20024;-76
2022/12/08 03:30:09;;;;;;;9.45;1.25;;;;;;;2.12;100.00;101022.72;5089295;28;20039;-76
2022/12/08 03:33:05;;;;;;;6.70;0.98;;;;;;;2.10;100.00;101028.00;5074031;28;20036;-76
2022/12/08 03:35:35;;;;;;;6.28;0.70;;;;;;;2.09;100.00;101022.84;5092537;28;20042;-76
2022/12/08 03:38:20;;;;;;;7.32;1.52;;;;;;;2.07;100.00;101015.06;5092434;28;20028;-76
2022/12/08 03:41:17;;;;;;;3.88;0.68;;;;;;;2.06;100.00;101017.75;5092580;28;20036;-76
2022/12/08 03:43:31;;;;;;;1.77;0.77;;;;;;;2.03;100.00;101010.03;5092367;28;20346;-76
2022/12/08 03:45:56;;;;;;;7.47;0.77;;;;;;;2.00;100.00;101015.47;5092304;28;20039;-77
2022/12/08 03:48:21;;;;;;;4.53;0.73;;;;;;;1.98;100.00;101009.44;5092230;28;20116;-76
2022/12/08 03:50:47;;;;;;;7.00;0.65;;;;;;;1.95;100.00;101013.06;5092652;28;20119;-76
2022/12/08 03:53:12;;;;;;;3.00;0.40;;;;;;;1.97;100.00;101008.63;5092212;28;20032;-76
2022/12/08 03:55:37;;;;;;;9.88;1.08;;;;;;;2.00;100.00;101002.34;5092521;28;20031;-76
2022/12/08 03:58:03;;;;;;;6.82;1.30;;;;;;;2.04;100.00;101009.13;5073949;28;20114;-76
2022/12/08 04:00:28;;;;;;;7.32;1.15;;;;;;;2.09;100.00;101007.97;5091579;28;20028;-77
2022/12/08 04:02:53;;;;;;;2.40;0.60;;;;;;;2.13;100.00;101016.53;5092134;28;20455;-77
2022/12/08 04:05:19;;;;;;;6.32;0.90;;;;;;;2.15;100.00;101003.31;5073239;28;20102;-76
2022/12/08 04:07:44;;;;;;;6.80;0.60;;;;;;;2.15;100.00;101000.69;5092137;28;20028;-77
2022/12/08 04:10:09;;;;;;;1.65;0.40;;;;;;;2.12;100.00;101004.34;5091714;28;20068;-77
2022/12/08 04:12:35;;;;;;;7.68;0.65;;;;;;;2.07;100.00;101009.81;5092212;28;20042;-77
2022/12/08 04:15:00;;;;;;;5.95;0.75;;;;;;;2.05;100.00;101003.81;5073585;28;20329;-76
2022/12/08 04:17:26;;;;;;;4.47;0.77;;;;;;;2.07;100.00;101006.34;5092189;28;20405;-76
2022/12/08 04:19:51;;;;;;;5.70;0.50;;;;;;;2.04;100.00;101002.09;5091601;28;20207;-76
2022/12/08 04:22:16;;;;;;;1.85;0.40;;;;;;;2.06;100.00;101005.50;5091642;28;20468;-77
2022/12/08 04:24:41;;;;;;;2.22;0.70;;;;;;;2.08;100.00;101006.25;5091603;28;20123;-76
2022/12/08 04:27:07;;;;;;;3.25;0.50;;;;;;;2.08;100.00;100992.28;5091543;28;20442;-76
2022/12/08 04:29:32;;;;;;;3.40;0.45;;;;;;;2.07;100.00;100998.47;5091190;28;20554;-74
2022/12/08 04:31:58;;;;;;;2.08;0.50;;;;;;;2.05;100.00;100998.56;5073043;28;20085;-75
2022/12/08 04:34:23;;;;;;;0.55;0.10;;;;;;;2.00;100.00;100983.97;5091866;28;20431;-76
2022/12/08 04:36:48;;;;;;;2.10;0.57;;;;;;;1.93;100.00;100973.78;5091028;28;20054;-76
2022/12/08 04:39:14;;;;;;;3.65;0.55;;;;;;;1.94;100.00;100972.00;5090923;28;20035;-76
2022/12/08 04:41:39;;;;;;;1.10;0.47;;;;;;;1.91;100.00;100970.41;5090381;28;20066;-76
2022/12/08 04:44:04;;;;;;;2.80;1.05;;;;;;;1.93;100.00;100971.16;5091055;28;20040;-76
2022/12/08 04:46:30;;;;;;;3.00;0.40;;;;;;;1.97;100.00;100971.88;5091159;28;20032;-76
2022/12/08 04:48:55;;;;;;;2.67;0.40;;;;;;;1.99;100.00;100969.16;5091170;28;20445;-76
2022/12/08 04:51:22;;;;;;;1.13;0.43;;;;;;;1.96;100.00;100962.28;5090765;28;20048;-76
2022/12/08 04:53:47;;;;;;;1.65;0.30;;;;;;;1.96;100.00;100961.44;5090629;28;20024;-75
2022/12/08 04:56:15;;;;;;;1.95;0.60;;;;;;;1.94;100.00;100956.25;5090675;28;20451;-75
2022/12/08 04:58:40;;;;;;;7.18;0.30;;;;;;;1.99;100.00;100964.75;5072689;28;20352;-75
2022/12/08 05:01:06;;;;;;;4.90;0.47;;;;;;;2.00;100.00;100958.59;5090564;28;20039;-75
2022/12/08 05:03:32;;;;;;;1.48;0.43;;;;;;;2.03;100.00;100961.03;5090646;28;20085;-75
2022/12/08 05:06:01;;;;;;;1.35;0.73;;;;;;;2.07;100.00;100959.09;5090993;28;20451;-78
2022/12/08 05:08:26;;;;;;;4.72;0.47;;;;;;;2.09;100.00;100951.97;5090408;28;20051;-75
2022/12/08 05:10:51;;;;;;;1.25;0.17;;;;;;;2.10;100.00;100946.63;5090619;28;20437;-75
2022/12/08 05:13:17;;;;;;;1.88;0.43;;;;;;;2.09;100.00;100949.34;5071967;28;20155;-75
2022/12/08 05:15:42;;;;;;;4.97;0.60;;;;;;;2.07;100.00;100949.44;5090343;28;20028;-76
2022/12/08 05:18:07;;;;;;;3.70;0.73;;;;;;;2.07;100.00;100940.72;5072086;28;20409;-75
2022/12/08 05:20:33;;;;;;;1.77;0.50;;;;;;;2.09;100.00;100950.22;5090318;28;20461;-76
2022/12/08 05:22:58;;;;;;;4.10;0.63;;;;;;;2.25;100.00;100954.63;5090457;28;20478;-76
2022/12/08 05:25:24;;;;;;;9.18;0.82;;;;;;;2.45;100.00;100964.06;5090320;28;20060;-76
2022/12/08 05:27:49;;;;;;;3.50;0.98;;;;;;;2.47;100.00;100968.28;5090217;28;20078;-77
2022/12/08 05:30:15;;;;;;;7.43;0.63;;;;;;;2.34;100.00;100971.69;5090536;28;20036;-77
2022/12/08 05:32:40;;;;;;;4.88;0.50;;;;;;;2.19;100.00;100983.84;5090429;28;20044;-77
2022/12/08 05:35:06;;;;;;;5.07;0.77;;;;;;;2.05;100.00;100981.97;5090070;28;20089;-76
2022/12/08 05:37:31;;;;;;;9.05;0.70;;;;;;;1.98;100.00;100985.84;5090377;28;20115;-76
2022/12/08 05:39:57;;;;;;;2.72;0.30;;;;;;;1.89;100.00;100985.38;5090344;28;20375;-76
2022/12/08 05:42:22;;;;;;;5.35;0.50;;;;;;;1.82;100.00;100999.75;5090430;28;20047;-76
2022/12/08 05:44:47;;;;;;;1.13;0.35;;;;;;;1.75;100.00;101006.25;5090183;28;20039;-76
2022/12/08 05:47:13;;;;;;;1.10;0.40;;;;;;;1.62;100.00;101002.53;5072228;28;20409;-76
2022/12/08 05:49:38;;;;;;;1.33;0.43;;;;;;;1.51;100.00;101000.47;5090767;28;20493;-76
2022/12/08 05:52:03;;;;;;;2.03;0.55;;;;;;;1.41;100.00;100998.28;5090707;28;20479;-75
2022/12/08 05:54:29;;;;;;;2.95;1.45;;;;;;;1.34;100.00;101001.28;5089559;28;20420;-77
2022/12/08 05:56:54;;;;;;;12.00;1.20;;;;;;;1.28;100.00;100991.09;5090867;28;20040;-76
2022/12/08 05:59:20;;;;;;;4.07;0.68;;;;;;;1.22;100.00;100994.88;5090350;28;20074;-76
2022/12/08 06:01:45;;;;;;;4.45;0.60;;;;;;;1.16;100.00;100984.69;5090014;28;20103;-77
2022/12/08 06:04:11;;;;;;;2.08;0.68;;;;;;;1.14;100.00;100984.75;5071992;28;20155;-77
2022/12/08 06:06:37;;;;;;;2.97;0.70;;;;;;;1.16;100.00;100982.06;5090235;28;20035;-77
2022/12/08 06:09:03;;;;;;;2.00;0.40;;;;;;;1.11;100.00;100982.28;5090661;28;20348;-77
2022/12/08 06:11:30;;;;;;;3.75;0.60;;;;;;;1.11;100.00;100973.59;5090627;28;20428;-77
2022/12/08 06:13:56;;;;;;;3.05;0.47;;;;;;;1.07;100.00;100969.41;5090639;28;20042;-76
2022/12/08 06:16:22;;;;;;;2.70;0.40;;;;;;;1.04;100.00;100973.03;5090851;28;20055;-76
2022/12/08 06:18:48;;;;;;;7.20;0.63;;;;;;;0.99;100.00;100968.00;5090631;28;20104;-76
2022/12/08 06:21:15;;;;;;;1.80;0.40;;;;;;;0.98;100.00;100970.69;5090529;28;20134;-74
2022/12/08 06:23:41;;;;;;;4.40;0.60;;;;;;;0.94;100.00;100970.00;5090530;28;20436;-78
2022/12/08 06:26:11;;;;;;;3.28;0.50;;;;;;;0.91;100.00;100964.94;5090514;28;20452;-81
2022/12/08 06:28:37;;;;;;;1.55;0.47;;;;;;;0.89;100.00;100964.13;5090365;28;20116;-78
2022/12/08 06:31:14;;;;;;;1.67;0.70;;;;;;;0.87;100.00;100958.97;5089935;28;20036;-75
2022/12/08 06:33:39;;;;;;;4.47;0.90;;;;;;;0.91;100.00;100957.06;5090280;28;20074;-76
2022/12/08 06:36:05;;;;;;;4.00;0.70;;;;;;;0.92;100.00;100953.50;5089910;28;20028;-76
2022/12/08 06:38:31;;;;;;;1.02;0.50;;;;;;;0.92;100.00;100950.88;5089956;28;20060;-76
2022/12/08 06:40:57;;;;;;;7.43;0.88;;;;;;;0.93;100.00;100955.22;5090151;28;20360;-77
2022/12/08 06:43:24;;;;;;;2.30;0.57;;;;;;;0.95;100.00;100949.91;5089835;28;20082;-76
2022/12/08 06:45:49;;;;;;;3.10;1.20;;;;;;;0.95;100.00;100947.28;5090274;28;20035;-77
2022/12/08 06:48:15;;;;;;;5.28;1.23;;;;;;;0.96;100.00;100943.75;5089885;28;20052;-76
2022/12/08 06:50:40;;;;;;;5.05;0.80;;;;;;;0.96;100.00;100938.50;5089480;28;20043;-75
2022/12/08 06:53:06;;;;;;;0.88;0.55;;;;;;;0.97;100.00;100946.28;5089607;28;20419;-76
2022/12/08 06:55:32;;;;;;;4.75;0.73;;;;;;;0.96;100.00;100954.22;5089670;28;20447;-77
2022/12/08 06:57:57;;;;;;;3.63;0.90;;;;;;;0.95;100.00;100949.91;5089601;28;20047;-76
2022/12/08 07:00:22;;;;;;;2.70;0.70;;;;;;;0.95;100.00;100944.66;5089705;28;20111;-76
2022/12/08 07:02:48;;;;;;;6.07;0.85;;;;;;;0.95;100.00;100944.66;5089760;28;20060;-75
2022/12/08 07:05:13;;;;;;;6.00;1.10;;;;;;;0.95;100.00;100947.28;5091929;28;20032;-75
2022/12/08 07:07:39;;;;;;;6.22;0.73;;;;;;;0.95;100.00;100947.28;5075007;28;20101;-75
2022/12/08 07:10:05;;;;;;;5.53;1.00;;;;;;;0.96;100.00;100943.75;5093604;28;20058;-75
2022/12/08 07:12:31;;;;;;;3.85;1.08;;;;;;;0.95;100.00;100937.63;5093478;28;20035;-74
2022/12/08 07:14:56;;;;;;;3.72;0.88;;;;;;;0.95;100.00;100939.41;5075100;28;20410;-74
2022/12/08 07:17:21;;;;;;;6.78;0.90;;;;;;;0.93;100.00;100946.50;5093157;28;20111;-74
2022/12/08 07:19:47;;;;;;;5.00;1.20;;;;;;;0.88;100.00;100944.97;5075010;28;20040;-76
2022/12/08 07:22:12;;;;;;;5.65;1.10;;;;;;;0.86;100.00;100938.09;5093528;28;20111;-75
2022/12/08 07:24:38;;;;;;;5.30;1.05;;;;;;;0.82;100.00;100947.00;5093577;28;20043;-75
2022/12/08 07:27:03;;;;;;;9.95;1.42;;;;;;;0.82;100.00;100941.75;5093276;28;20043;-77
2022/12/08 07:29:28;;;;;;;4.60;1.60;;;;;;;0.85;100.00;100944.22;5092965;28;20028;-74
2022/12/08 07:31:54;;;;;;;1.77;1.08;;;;;;;0.89;100.00;100951.03;5093340;28;20313;-73
2022/12/08 07:34:19;;;;;;;3.95;1.20;;;;;;;0.95;100.00;100949.91;5093150;28;20440;-73
2022/12/08 07:36:45;;;;;;;4.00;1.30;;;;;;;0.97;100.00;100941.03;5092926;28;20066;-74
2022/12/08 07:39:10;;;;;;;3.97;1.48;;;;;;;1.02;100.00;100938.19;5092801;28;20123;-73
2022/12/08 07:41:35;;;;;;;5.80;1.20;;;;;;;1.04;100.00;100933.72;5092694;28;20364;-74
2022/12/08 07:44:01;;;;;;;8.45;1.20;;;;;;;1.05;100.00;100938.03;5074491;28;20036;-73
2022/12/08 07:46:26;;;;;;;4.57;1.15;;;;;;;1.02;100.00;100923.31;5093136;28;20413;-74
2022/12/08 07:48:53;;;;;;;2.05;0.85;;;;;;;1.03;100.00;100932.88;5074272;28;20079;-74
2022/12/08 07:51:19;;;;;;;3.20;0.98;;;;;;;1.01;100.00;100933.88;5092884;28;20031;-73
2022/12/08 07:53:46;;;;;;;5.32;1.10;;;;;;;0.99;100.00;100923.47;5093235;28;20490;-74
2022/12/08 07:56:12;;;;;;;6.53;1.15;;;;;;;0.99;100.00;100933.94;5074578;28;20417;-74
2022/12/08 07:58:38;;;;;;;10.40;1.05;;;;;;;1.02;100.00;100930.34;5093244;28;20123;-75
2022/12/08 08:01:04;;;;;;;5.72;1.33;;;;;;;1.03;100.00;100938.13;5092620;28;20060;-75
2022/12/08 08:03:30;;;;;;;5.45;1.13;;;;;;;1.05;100.00;100940.66;5092697;28;20028;-74
2022/12/08 08:06:05;;;;;;;7.32;1.42;;;;;;;1.09;100.00;100950.06;5092281;28;20061;-77
2022/12/08 08:08:30;;;;;;;4.82;1.50;;;;;;;1.15;100.00;100973.38;5092587;28;20032;-77
2022/12/08 08:10:56;;;;;;;2.58;1.63;;;;;;;1.18;100.00;100969.72;5092174;28;20115;-76
2022/12/08 08:13:22;;;;;;;5.65;1.50;;;;;;;1.22;100.00;100966.03;5092387;28;20028;-76
2022/12/08 08:15:47;;;;;;;2.17;1.20;;;;;;;1.23;100.00;100965.13;5090927;28;20496;-74
2022/12/08 08:18:12;;;;;;;5.75;1.70;;;;;;;1.25;100.00;100973.75;5092485;28;20107;-75
2022/12/08 08:20:38;;;;;;;3.08;1.23;;;;;;;1.26;100.00;100964.97;5073593;28;20032;-75
2022/12/08 08:23:04;;;;;;;6.07;1.10;;;;;;;1.24;100.00;100966.81;5091614;28;20174;-74
2022/12/08 08:25:29;;;;;;;4.43;1.58;;;;;;;1.24;100.00;100974.69;5092059;28;20043;-75
2022/12/08 08:27:54;;;;;;;7.25;1.48;;;;;;;1.21;100.00;100969.59;5091338;28;20526;-75
2022/12/08 08:30:20;;;;;;;1.88;0.77;;;;;;;1.19;100.00;100974.88;5091673;28;20027;-74
2022/12/08 08:32:45;;;;;;;2.72;0.65;;;;;;;1.16;100.00;100976.81;5091913;28;20189;-75
2022/12/08 08:35:12;;;;;;;2.92;0.70;;;;;;;1.05;100.00;100970.31;5092130;28;20401;-73
2022/12/08 08:37:37;;;;;;;1.85;0.80;;;;;;;0.97;100.00;100985.59;5092014;28;20036;-74
2022/12/08 08:40:03;;;;;;;4.28;1.00;;;;;;;0.91;100.00;100982.41;5091690;28;20031;-73
2022/12/08 08:42:29;;;;;;;4.93;1.02;;;;;;;0.88;100.00;100978.16;5074021;28;20064;-73
2022/12/08 08:44:54;;;;;;;3.90;1.05;;;;;;;0.84;100.00;100979.22;5091928;28;20032;-74
2022/12/08 08:47:19;;;;;;;4.97;1.10;;;;;;;0.82;100.00;100975.81;5091692;28;20052;-73
2022/12/08 08:49:45;;;;;;;2.40;1.00;;;;;;;0.82;100.00;100978.44;5073435;28;20071;-73
2022/12/08 08:52:10;;;;;;;2.13;0.80;;;;;;;0.82;100.00;100965.34;5091953;28;20062;-74
2022/12/08 08:54:36;;;;;;;3.30;0.77;;;;;;;0.84;100.00;100966.13;5073751;28;20115;-73
2022/12/08 08:57:02;;;;;;;4.80;0.90;;;;;;;0.87;100.00;100973.84;5091693;28;20111;-73
2022/12/08 08:59:27;;;;;;;4.50;0.68;;;;;;;0.86;100.00;100972.97;5073137;28;20043;-73
2022/12/08 09:01:54;;;;;;;2.42;0.70;;;;;;;0.88;100.00;100967.66;5091738;28;20109;-73
2022/12/08 09:04:20;;;;;;;1.95;0.57;;;;;;;0.85;100.00;100966.06;5073206;28;20210;-73
2022/12/08 09:06:46;;;;;;;1.05;0.50;;;;;;;0.85;100.00;100962.56;5091383;28;20036;-74
2022/12/08 09:09:12;;;;;;;0.63;0.50;;;;;;;0.88;100.00;100959.81;5091579;28;20032;-74
2022/12/08 09:11:38;;;;;;;4.43;0.90;;;;;;;0.91;100.00;100953.56;5091357;28;20046;-74
2022/12/08 09:14:03;;;;;;;2.78;0.80;;;;;;;0.94;100.00;100958.66;5091701;28;20020;-74
2022/12/08 09:16:29;;;;;;;2.85;1.00;;;;;;;0.97;100.00;100953.28;5072948;28;20134;-73
2022/12/08 09:18:54;;;;;;;2.70;1.23;;;;;;;1.00;100.00;100951.38;5091812;28;20028;-74
2022/12/08 09:21:22;;;;;;;4.18;0.95;;;;;;;1.07;100.00;100953.69;5091402;28;20051;-74
2022/12/08 09:23:49;;;;;;;5.40;1.10;;;;;;;1.14;100.00;100961.16;5073564;28;20111;-74
2022/12/08 09:26:15;;;;;;;1.65;1.10;;;;;;;1.21;100.00;100962.56;5091517;28;20135;-74
2022/12/08 09:28:45;;;;;;;4.85;1.00;;;;;;;1.29;100.00;100958.72;5091746;28;20432;-74
2022/12/08 09:31:12;;;;;;;1.00;0.80;;;;;;;1.34;100.00;100952.31;5091693;28;20036;-73
2022/12/08 09:33:37;;;;;;;1.40;0.60;;;;;;;1.40;100.00;100959.03;5091208;28;20478;-74
2022/12/08 09:36:03;;;;;;;5.40;0.70;;;;;;;1.45;100.00;100953.53;5073018;28;20048;-74
2022/12/08 09:38:29;;;;;;;0.88;0.70;;;;;;;1.49;100.00;100970.81;5091156;28;20032;-74
2022/12/08 09:40:54;;;;;;;4.28;0.80;;;;;;;1.51;100.00;100969.84;5091077;28;20035;-75
2022/12/08 09:44:03;;;;;;;1.50;0.60;;;;;;;1.49;100.00;100969.03;5073166;28;20031;-73
2022/12/08 09:46:32;;;;;;;3.53;0.90;;;;;;;1.44;100.00;100981.56;5091266;28;20031;-75
2022/12/08 09:48:59;;;;;;;5.57;1.30;;;;;;;1.36;100.00;100991.59;5091077;28;20052;-73
2022/12/08 09:51:38;;;;;;;2.22;1.00;;;;;;;1.24;100.00;100982.56;5091036;28;20432;-74
2022/12/08 09:54:15;;;;;;;6.72;1.25;;;;;;;1.19;100.00;100979.28;5091409;28;20031;-74
2022/12/08 09:56:40;;;;;;;3.58;0.88;;;;;;;1.18;100.00;100972.34;5090896;28;20032;-73
2022/12/08 09:59:26;;;;;;;1.05;0.70;;;;;;;1.20;100.00;100981.84;5091369;28;20047;-74
2022/12/08 10:01:53;;;;;;;2.08;0.70;;;;;;;1.22;100.00;100976.50;5090744;28;20034;-74
2022/12/08 10:04:25;;;;;;;2.72;0.60;;;;;;;1.22;100.00;100976.50;5090767;28;20059;-74
2022/12/08 10:07:29;;;;;;;2.40;0.65;;;;;;;1.23;100.00;100968.56;5090757;28;20485;-74
2022/12/08 10:10:24;;;;;;;1.52;0.60;;;;;;;1.30;100.00;100957.78;5090740;28;20086;-74
2022/12/08 10:12:58;;;;;;;3.00;0.50;;;;;;;1.39;100.00;100963.44;5043197;28;20047;-73
2022/12/08 10:15:45;;;;;;;1.27;0.65;;;;;;;1.40;100.00;100965.13;5090630;28;20054;-73
2022/12/08 10:18:28;;;;;;;9.00;1.27;;;;;;;1.39;100.00;100973.06;5090986;28;20111;-74
2022/12/08 10:20:58;;;;;;;3.70;1.30;;;;;;;1.38;100.00;100972.22;5090595;28;20475;-72
2022/12/08 10:23:30;;;;;;;5.05;1.60;;;;;;;1.37;100.00;100965.28;5090463;28;20035;-74
2022/12/08 10:25:59;;;;;;;;;;;;;;;1.33;100.00;100961.13;5090886;28;20110;-74
2022/12/08 10:28:24;;;;;;;2.17;1.00;;;;;;;1.31;100.00;100954.25;5090596;28;19915;-74
2022/12/08 10:30:50;;;;;;;3.50;1.05;;;;;;;1.29;100.00;100943.00;5090236;28;20055;-73
2022/12/08 10:33:18;;;;;;;5.65;1.00;;;;;;;1.30;100.00;100936.81;5090497;28;20119;-74
2022/12/08 10:35:50;;;;;;;3.63;1.23;;;;;;;1.32;100.00;100930.56;5090175;28;20028;-74
2022/12/08 10:38:16;;;;;;;1.42;0.60;;;;;;;1.30;100.00;100927.19;5090030;28;20058;-74
2022/12/08 10:40:44;;;;;;;8.48;1.05;;;;;;;1.30;100.00;100921.06;5089951;28;20090;-74
2022/12/08 10:43:16;;;;;;;3.67;1.00;;;;;;;1.33;100.00;100907.81;5090122;28;20429;-74
2022/12/08 10:45:42;;;;;;;5.32;1.25;;;;;;;1.40;100.00;100901.34;5072125;28;20085;-73
2022/12/08 10:48:26;;;;;;;2.97;0.80;;;;;;;1.35;100.00;100901.56;5090136;28;20140;-74
2022/12/08 10:50:55;;;;;;;3.25;1.00;;;;;;;1.44;100.00;100900.25;5072088;28;20371;-73
2022/12/08 10:53:26;;;;;;;0.75;0.57;;;;;;;1.49;100.00;100898.22;5090068;28;20457;-75
2022/12/08 10:56:05;;;;;;;3.05;0.80;;;;;;;1.51;100.00;100892.94;5090237;28;20031;-74
2022/12/08 10:58:47;;;;;;;3.92;0.98;;;;;;;1.57;100.00;100898.69;5090036;28;20070;-75
2022/12/08 11:01:31;;;;;;;1.02;0.77;;;;;;;1.61;100.00;100886.25;5090016;28;20028;-74
2022/12/08 11:03:59;;;;;;;1.08;0.70;;;;;;;1.66;100.00;100897.38;5071400;28;20028;-74
2022/12/08 11:06:27;;;;;;;1.38;0.63;;;;;;;1.70;100.00;100893.66;5089774;28;20156;-74
2022/12/08 11:08:59;;;;;;;1.67;0.77;;;;;;;1.73;100.00;100892.63;5089725;28;20031;-74
2022/12/08 11:11:38;;;;;;;;;;;;;;;1.75;100.00;100894.25;5090723;28;20081;-74
2022/12/08 11:14:07;;;;;;;1.38;0.77;;;;;;;1.75;100.00;100886.41;5090384;28;19915;-74
2022/12/08 11:16:34;;;;;;;1.90;1.00;;;;;;;1.79;100.00;100884.44;5090071;28;20032;-74
2022/12/08 11:19:05;;;;;;;2.75;0.80;;;;;;;1.86;100.00;100880.56;5089779;28;20047;-74
2022/12/08 11:21:36;;;;;;;2.97;0.75;;;;;;;1.88;100.00;100878.72;5071527;28;20067;-74
2022/12/08 11:24:13;;;;;;;1.63;0.90;;;;;;;1.89;100.00;100871.69;5089717;28;20035;-73
2022/12/08 11:26:42;;;;;;;0.93;0.70;;;;;;;1.87;100.00;100882.28;5089869;28;20024;-75
2022/12/08 11:29:11;;;;;;;4.15;1.20;;;;;;;1.81;100.00;100897.47;5089945;28;20027;-74
2022/12/08 11:31:48;;;;;;;3.67;1.02;;;;;;;1.68;100.00;100916.50;5089810;28;20119;-73
2022/12/08 11:34:22;;;;;;;1.40;1.00;;;;;;;1.56;100.00;100922.38;5090060;28;20025;-75
2022/12/08 11:36:51;;;;;;;1.65;0.90;;;;;;;1.39;100.00;100918.00;5090250;28;20054;-73